Moro, Oregon
Current Conditions -  °F | °C
As of 11:53 AM on Wednesday 28 Jan 2015 (Local Time) from KDLS Reporting Station
Clear Clear  
Wind Chill: 44°   Ceiling: Unl
Heat Index: 48°   Visibility: 10mi
Dew Point: 41°   Wind: 8mph
Humidity: 77%   Direction: 70°ENE
Pressure: 30.38"   Gusts: NA
Location:  45.48°N, 120.73°W
Report Text: KDLS 281953Z AUTO 07007KT 10SM CLR 09/05 A3038 RMK AO2 SLP288 T00890050
Loading
Personal Weather Stations






























Interactive Weather Map New forecast layout! Learn more

10-Day Weather Forecast

Advertisements
Track Severe Weather on mobile